sensor_id;sensor_type;location;lat;lon;timestamp;temperature;humidity
43772;HTU21D;59066;54.782;32.024;2023-10-19T00:00:42;6.36;101.54
43772;HTU21D;59066;54.782;32.024;2023-10-19T00:03:14;6.30;101.77
43772;HTU21D;59066;54.782;32.024;2023-10-19T00:05:43;6.36;101.65
43772;HTU21D;59066;54.782;32.024;2023-10-19T00:08:14;6.30;101.46
43772;HTU21D;59066;54.782;32.024;2023-10-19T00:10:45;6.38;101.80
43772;HTU21D;59066;54.782;32.024;2023-10-19T00:13:21;6.29;101.49
43772;HTU21D;59066;54.782;32.024;2023-10-19T00:15:49;6.28;101.66
43772;HTU21D;59066;54.782;32.024;2023-10-19T00:18:19;6.38;101.36
43772;HTU21D;59066;54.782;32.024;2023-10-19T00:20:52;6.38;101.25
43772;HTU21D;59066;54.782;32.024;2023-10-19T00:23:23;6.38;101.39
43772;HTU21D;59066;54.782;32.024;2023-10-19T00:25:57;6.38;101.24
43772;HTU21D;59066;54.782;32.024;2023-10-19T00:28:26;6.38;101.43
43772;HTU21D;59066;54.782;32.024;2023-10-19T00:30:55;6.33;101.83
43772;HTU21D;59066;54.782;32.024;2023-10-19T00:33:30;6.35;101.60
43772;HTU21D;59066;54.782;32.024;2023-10-19T00:36:00;6.38;101.51
43772;HTU21D;59066;54.782;32.024;2023-10-19T00:38:39;6.42;101.73
43772;HTU21D;59066;54.782;32.024;2023-10-19T00:41:28;6.35;102.04
43772;HTU21D;59066;54.782;32.024;2023-10-19T00:43:59;6.41;101.89
43772;HTU21D;59066;54.782;32.024;2023-10-19T00:46:53;6.40;102.09
43772;HTU21D;59066;54.782;32.024;2023-10-19T00:49:31;6.37;101.81
43772;HTU21D;59066;54.782;32.024;2023-10-19T00:52:00;6.48;102.09
43772;HTU21D;59066;54.782;32.024;2023-10-19T00:54:40;6.49;101.96
43772;HTU21D;59066;54.782;32.024;2023-10-19T00:57:15;6.45;101.86
43772;HTU21D;59066;54.782;32.024;2023-10-19T00:59:47;6.44;102.02
43772;HTU21D;59066;54.782;32.024;2023-10-19T01:02:17;6.42;101.85
43772;HTU21D;59066;54.782;32.024;2023-10-19T01:04:48;6.50;102.05
43772;HTU21D;59066;54.782;32.024;2023-10-19T01:07:48;6.48;101.96
43772;HTU21D;59066;54.782;32.024;2023-10-19T01:10:24;6.44;101.62
43772;HTU21D;59066;54.782;32.024;2023-10-19T01:12:51;6.43;101.72
43772;HTU21D;59066;54.782;32.024;2023-10-19T01:15:21;6.46;101.57
43772;HTU21D;59066;54.782;32.024;2023-10-19T01:17:56;6.44;101.41
43772;HTU21D;59066;54.782;32.024;2023-10-19T01:20:30;6.48;101.43
43772;HTU21D;59066;54.782;32.024;2023-10-19T01:23:03;6.45;100.89
43772;HTU21D;59066;54.782;32.024;2023-10-19T01:25:49;6.48;100.72
43772;HTU21D;59066;54.782;32.024;2023-10-19T01:28:30;6.46;100.90
43772;HTU21D;59066;54.782;32.024;2023-10-19T01:31:22;6.50;100.83
43772;HTU21D;59066;54.782;32.024;2023-10-19T01:33:50;6.43;100.67
43772;HTU21D;59066;54.782;32.024;2023-10-19T01:36:17;6.41;100.69
43772;HTU21D;59066;54.782;32.024;2023-10-19T01:38:55;6.45;100.71
43772;HTU21D;59066;54.782;32.024;2023-10-19T01:41:24;6.40;100.43
43772;HTU21D;59066;54.782;32.024;2023-10-19T01:43:54;6.41;100.45
43772;HTU21D;59066;54.782;32.024;2023-10-19T01:46:23;6.41;100.54
43772;HTU21D;59066;54.782;32.024;2023-10-19T01:48:58;6.40;100.34
43772;HTU21D;59066;54.782;32.024;2023-10-19T01:51:27;6.37;100.49
43772;HTU21D;59066;54.782;32.024;2023-10-19T01:53:56;6.40;100.15
43772;HTU21D;59066;54.782;32.024;2023-10-19T01:56:24;6.39;100.53
43772;HTU21D;59066;54.782;32.024;2023-10-19T01:58:52;6.41;100.24
43772;HTU21D;59066;54.782;32.024;2023-10-19T02:01:21;6.30;100.23
43772;HTU21D;59066;54.782;32.024;2023-10-19T02:03:57;6.27;99.65
43772;HTU21D;59066;54.782;32.024;2023-10-19T02:06:27;6.21;99.89
43772;HTU21D;59066;54.782;32.024;2023-10-19T02:09:10;6.11;99.42
43772;HTU21D;59066;54.782;32.024;2023-10-19T02:12:00;5.93;99.94
43772;HTU21D;59066;54.782;32.024;2023-10-19T02:14:30;5.84;100.22
43772;HTU21D;59066;54.782;32.024;2023-10-19T02:17:00;5.87;100.41
43772;HTU21D;59066;54.782;32.024;2023-10-19T02:19:30;5.74;100.57
43772;HTU21D;59066;54.782;32.024;2023-10-19T02:22:01;5.78;100.77
43772;HTU21D;59066;54.782;32.024;2023-10-19T02:24:35;5.70;101.09
43772;HTU21D;59066;54.782;32.024;2023-10-19T02:27:02;5.66;100.97
43772;HTU21D;59066;54.782;32.024;2023-10-19T02:29:30;5.63;101.07
43772;HTU21D;59066;54.782;32.024;2023-10-19T02:31:59;5.61;101.14
43772;HTU21D;59066;54.782;32.024;2023-10-19T02:34:32;5.56;101.19
43772;HTU21D;59066;54.782;32.024;2023-10-19T02:37:02;5.60;101.81
43772;HTU21D;59066;54.782;32.024;2023-10-19T02:39:29;5.60;101.54
43772;HTU21D;59066;54.782;32.024;2023-10-19T02:41:58;5.59;101.36
43772;HTU21D;59066;54.782;32.024;2023-10-19T02:44:29;5.62;101.15
43772;HTU21D;59066;54.782;32.024;2023-10-19T02:46:58;5.63;101.49
43772;HTU21D;59066;54.782;32.024;2023-10-19T02:49:36;5.62;101.75
43772;HTU21D;59066;54.782;32.024;2023-10-19T02:52:06;5.63;101.33
43772;HTU21D;59066;54.782;32.024;2023-10-19T02:54:34;5.55;101.25
43772;HTU21D;59066;54.782;32.024;2023-10-19T02:57:03;5.57;101.09
43772;HTU21D;59066;54.782;32.024;2023-10-19T02:59:35;5.56;100.90
43772;HTU21D;59066;54.782;32.024;2023-10-19T03:02:03;5.55;100.96
43772;HTU21D;59066;54.782;32.024;2023-10-19T03:04:43;5.52;101.11
43772;HTU21D;59066;54.782;32.024;2023-10-19T03:07:11;5.52;101.06
43772;HTU21D;59066;54.782;32.024;2023-10-19T03:09:43;5.47;100.67
43772;HTU21D;59066;54.782;32.024;2023-10-19T03:12:18;5.42;100.77
43772;HTU21D;59066;54.782;32.024;2023-10-19T03:14:46;5.48;100.70
43772;HTU21D;59066;54.782;32.024;2023-10-19T03:17:15;5.46;100.80
43772;HTU21D;59066;54.782;32.024;2023-10-19T03:19:43;5.37;100.82
43772;HTU21D;59066;54.782;32.024;2023-10-19T03:22:11;5.39;101.25
43772;HTU21D;59066;54.782;32.024;2023-10-19T03:24:39;5.41;100.90
43772;HTU21D;59066;54.782;32.024;2023-10-19T03:27:12;5.49;100.90
43772;HTU21D;59066;54.782;32.024;2023-10-19T03:29:44;5.43;100.51
43772;HTU21D;59066;54.782;32.024;2023-10-19T03:32:15;5.34;100.76
43772;HTU21D;59066;54.782;32.024;2023-10-19T03:34:44;5.33;100.48
43772;HTU21D;59066;54.782;32.024;2023-10-19T03:37:15;5.26;100.38
43772;HTU21D;59066;54.782;32.024;2023-10-19T03:39:44;5.22;100.41
43772;HTU21D;59066;54.782;32.024;2023-10-19T03:42:13;5.19;100.51
43772;HTU21D;59066;54.782;32.024;2023-10-19T03:44:41;5.21;100.48
43772;HTU21D;59066;54.782;32.024;2023-10-19T03:47:15;5.20;100.54
43772;HTU21D;59066;54.782;32.024;2023-10-19T03:49:47;5.18;100.59
43772;HTU21D;59066;54.782;32.024;2023-10-19T03:52:15;5.20;100.50
43772;HTU21D;59066;54.782;32.024;2023-10-19T03:54:42;5.10;100.64
43772;HTU21D;59066;54.782;32.024;2023-10-19T03:57:16;5.20;101.02
43772;HTU21D;59066;54.782;32.024;2023-10-19T03:59:56;5.10;100.72
43772;HTU21D;59066;54.782;32.024;2023-10-19T04:02:25;5.19;101.05
43772;HTU21D;59066;54.782;32.024;2023-10-19T04:04:55;5.20;101.12
43772;HTU21D;59066;54.782;32.024;2023-10-19T04:07:25;5.19;101.09
43772;HTU21D;59066;54.782;32.024;2023-10-19T04:09:54;5.19;100.74
43772;HTU21D;59066;54.782;32.024;2023-10-19T04:12:26;5.16;100.85
43772;HTU21D;59066;54.782;32.024;2023-10-19T04:14:58;5.18;100.80
43772;HTU21D;59066;54.782;32.024;2023-10-19T04:17:45;5.18;101.15
43772;HTU21D;59066;54.782;32.024;2023-10-19T04:20:17;5.13;100.90
43772;HTU21D;59066;54.782;32.024;2023-10-19T04:22:49;5.11;101.06
43772;HTU21D;59066;54.782;32.024;2023-10-19T04:25:18;5.10;100.65
43772;HTU21D;59066;54.782;32.024;2023-10-19T04:27:47;5.05;100.64
43772;HTU21D;59066;54.782;32.024;2023-10-19T04:30:16;5.05;100.66
43772;HTU21D;59066;54.782;32.024;2023-10-19T04:32:45;5.05;100.74
43772;HTU21D;59066;54.782;32.024;2023-10-19T04:35:13;5.05;100.61
43772;HTU21D;59066;54.782;32.024;2023-10-19T04:37:43;4.98;100.16
43772;HTU21D;59066;54.782;32.024;2023-10-19T04:40:11;4.97;100.09
43772;HTU21D;59066;54.782;32.024;2023-10-19T04:42:39;4.95;100.27
43772;HTU21D;59066;54.782;32.024;2023-10-19T04:45:07;4.97;100.16
43772;HTU21D;59066;54.782;32.024;2023-10-19T04:47:35;4.94;100.29
43772;HTU21D;59066;54.782;32.024;2023-10-19T04:50:06;4.92;100.25
43772;HTU21D;59066;54.782;32.024;2023-10-19T04:52:34;4.89;100.64
43772;HTU21D;59066;54.782;32.024;2023-10-19T04:55:02;4.89;100.49
43772;HTU21D;59066;54.782;32.024;2023-10-19T04:57:30;4.86;100.70
43772;HTU21D;59066;54.782;32.024;2023-10-19T04:59:58;4.73;100.56
43772;HTU21D;59066;54.782;32.024;2023-10-19T05:02:25;4.71;100.41
43772;HTU21D;59066;54.782;32.024;2023-10-19T05:04:53;4.66;100.82
43772;HTU21D;59066;54.782;32.024;2023-10-19T05:07:21;4.75;101.19
43772;HTU21D;59066;54.782;32.024;2023-10-19T05:09:49;4.64;100.74
43772;HTU21D;59066;54.782;32.024;2023-10-19T05:12:16;4.62;101.12
43772;HTU21D;59066;54.782;32.024;2023-10-19T05:14:44;4.56;100.62
43772;HTU21D;59066;54.782;32.024;2023-10-19T05:17:12;4.56;100.50
43772;HTU21D;59066;54.782;32.024;2023-10-19T05:19:41;4.49;100.76
43772;HTU21D;59066;54.782;32.024;2023-10-19T05:22:09;4.54;100.90
43772;HTU21D;59066;54.782;32.024;2023-10-19T05:24:37;4.53;101.15
43772;HTU21D;59066;54.782;32.024;2023-10-19T05:27:04;4.49;100.86
43772;HTU21D;59066;54.782;32.024;2023-10-19T05:29:33;4.45;100.80
43772;HTU21D;59066;54.782;32.024;2023-10-19T05:32:01;4.41;100.76
43772;HTU21D;59066;54.782;32.024;2023-10-19T05:34:29;4.36;100.93
43772;HTU21D;59066;54.782;32.024;2023-10-19T05:36:59;4.28;100.46
43772;HTU21D;59066;54.782;32.024;2023-10-19T05:39:29;4.19;100.34
43772;HTU21D;59066;54.782;32.024;2023-10-19T05:41:58;4.14;100.80
43772;HTU21D;59066;54.782;32.024;2023-10-19T05:44:31;4.10;100.71
43772;HTU21D;59066;54.782;32.024;2023-10-19T05:46:59;4.03;100.70
43772;HTU21D;59066;54.782;32.024;2023-10-19T05:49:27;4.03;100.85
43772;HTU21D;59066;54.782;32.024;2023-10-19T05:51:58;3.99;100.62
43772;HTU21D;59066;54.782;32.024;2023-10-19T05:54:26;4.01;100.85
43772;HTU21D;59066;54.782;32.024;2023-10-19T05:56:54;4.08;101.03
43772;HTU21D;59066;54.782;32.024;2023-10-19T05:59:22;4.13;101.12
43772;HTU21D;59066;54.782;32.024;2023-10-19T06:01:53;4.15;100.94
43772;HTU21D;59066;54.782;32.024;2023-10-19T06:04:21;4.13;100.54
43772;HTU21D;59066;54.782;32.024;2023-10-19T06:06:48;4.10;100.86
43772;HTU21D;59066;54.782;32.024;2023-10-19T06:09:16;4.17;101.12
43772;HTU21D;59066;54.782;32.024;2023-10-19T06:11:45;4.21;101.11
43772;HTU21D;59066;54.782;32.024;2023-10-19T06:14:12;4.14;100.83
43772;HTU21D;59066;54.782;32.024;2023-10-19T06:16:40;4.14;101.22
43772;HTU21D;59066;54.782;32.024;2023-10-19T06:19:09;4.17;101.24
43772;HTU21D;59066;54.782;32.024;2023-10-19T06:21:37;4.14;100.96
43772;HTU21D;59066;54.782;32.024;2023-10-19T06:24:05;4.19;101.23
43772;HTU21D;59066;54.782;32.024;2023-10-19T06:26:32;4.16;100.64
43772;HTU21D;59066;54.782;32.024;2023-10-19T06:29:00;4.06;99.91
43772;HTU21D;59066;54.782;32.024;2023-10-19T06:31:29;3.97;99.36
43772;HTU21D;59066;54.782;32.024;2023-10-19T06:33:57;3.92;99.31
43772;HTU21D;59066;54.782;32.024;2023-10-19T06:36:25;3.88;99.42
43772;HTU21D;59066;54.782;32.024;2023-10-19T06:38:53;3.79;99.35
43772;HTU21D;59066;54.782;32.024;2023-10-19T06:41:21;3.78;99.51
43772;HTU21D;59066;54.782;32.024;2023-10-19T06:43:49;3.83;99.39
43772;HTU21D;59066;54.782;32.024;2023-10-19T06:46:17;3.88;99.49
43772;HTU21D;59066;54.782;32.024;2023-10-19T06:48:45;3.88;99.35
43772;HTU21D;59066;54.782;32.024;2023-10-19T06:51:12;3.85;98.89
43772;HTU21D;59066;54.782;32.024;2023-10-19T06:53:40;3.79;99.03
43772;HTU21D;59066;54.782;32.024;2023-10-19T06:56:08;3.83;99.23
43772;HTU21D;59066;54.782;32.024;2023-10-19T06:58:35;3.90;99.84
43772;HTU21D;59066;54.782;32.024;2023-10-19T07:01:07;4.02;99.33
43772;HTU21D;59066;54.782;32.024;2023-10-19T07:03:36;3.85;98.93
43772;HTU21D;59066;54.782;32.024;2023-10-19T07:06:04;3.88;99.25
43772;HTU21D;59066;54.782;32.024;2023-10-19T07:08:37;3.83;99.32
43772;HTU21D;59066;54.782;32.024;2023-10-19T07:11:05;3.84;98.93
43772;HTU21D;59066;54.782;32.024;2023-10-19T07:13:33;3.90;99.57
43772;HTU21D;59066;54.782;32.024;2023-10-19T07:16:01;3.94;99.76
43772;HTU21D;59066;54.782;32.024;2023-10-19T07:18:31;4.10;100.35
43772;HTU21D;59066;54.782;32.024;2023-10-19T07:20:59;4.15;100.16
43772;HTU21D;59066;54.782;32.024;2023-10-19T07:23:33;4.21;99.79
43772;HTU21D;59066;54.782;32.024;2023-10-19T07:26:00;4.28;100.25
43772;HTU21D;59066;54.782;32.024;2023-10-19T07:28:28;4.35;100.29
43772;HTU21D;59066;54.782;32.024;2023-10-19T07:30:55;4.44;100.44
43772;HTU21D;59066;54.782;32.024;2023-10-19T07:33:23;4.52;100.29
43772;HTU21D;59066;54.782;32.024;2023-10-19T07:35:51;4.54;99.97
43772;HTU21D;59066;54.782;32.024;2023-10-19T07:38:23;4.63;100.32
43772;HTU21D;59066;54.782;32.024;2023-10-19T07:40:51;4.58;99.36
43772;HTU21D;59066;54.782;32.024;2023-10-19T07:43:21;4.54;98.71
43772;HTU21D;59066;54.782;32.024;2023-10-19T07:45:49;4.46;98.30
43772;HTU21D;59066;54.782;32.024;2023-10-19T07:48:17;4.46;97.86
43772;HTU21D;59066;54.782;32.024;2023-10-19T07:50:45;4.43;97.99
43772;HTU21D;59066;54.782;32.024;2023-10-19T07:53:12;4.49;97.97
43772;HTU21D;59066;54.782;32.024;2023-10-19T07:55:40;4.43;97.26
43772;HTU21D;59066;54.782;32.024;2023-10-19T07:58:09;4.57;97.97
43772;HTU21D;59066;54.782;32.024;2023-10-19T08:00:37;4.60;97.76
43772;HTU21D;59066;54.782;32.024;2023-10-19T08:03:06;4.73;98.12
43772;HTU21D;59066;54.782;32.024;2023-10-19T08:05:35;4.81;97.90
43772;HTU21D;59066;54.782;32.024;2023-10-19T08:08:03;4.75;97.21
43772;HTU21D;59066;54.782;32.024;2023-10-19T08:10:33;4.77;97.21
43772;HTU21D;59066;54.782;32.024;2023-10-19T08:13:04;4.84;97.35
43772;HTU21D;59066;54.782;32.024;2023-10-19T08:15:31;4.84;96.89
43772;HTU21D;59066;54.782;32.024;2023-10-19T08:17:59;4.89;97.04
43772;HTU21D;59066;54.782;32.024;2023-10-19T08:20:26;4.80;96.73
43772;HTU21D;59066;54.782;32.024;2023-10-19T08:22:59;4.89;97.16
43772;HTU21D;59066;54.782;32.024;2023-10-19T08:25:29;4.77;97.35
43772;HTU21D;59066;54.782;32.024;2023-10-19T08:28:14;4.76;97.44
43772;HTU21D;59066;54.782;32.024;2023-10-19T08:30:42;4.81;97.11
43772;HTU21D;59066;54.782;32.024;2023-10-19T08:33:12;4.86;97.39
43772;HTU21D;59066;54.782;32.024;2023-10-19T08:35:41;4.91;97.49
43772;HTU21D;59066;54.782;32.024;2023-10-19T08:38:08;4.90;96.53
43772;HTU21D;59066;54.782;32.024;2023-10-19T08:40:38;4.80;95.70
43772;HTU21D;59066;54.782;32.024;2023-10-19T08:43:07;4.90;96.00
43772;HTU21D;59066;54.782;32.024;2023-10-19T08:45:41;4.94;94.52
43772;HTU21D;59066;54.782;32.024;2023-10-19T08:48:10;4.87;93.43
43772;HTU21D;59066;54.782;32.024;2023-10-19T08:50:38;4.89;94.86
43772;HTU21D;59066;54.782;32.024;2023-10-19T08:53:07;4.91;93.91
43772;HTU21D;59066;54.782;32.024;2023-10-19T08:55:41;4.88;93.51
43772;HTU21D;59066;54.782;32.024;2023-10-19T08:58:15;4.87;93.72
43772;HTU21D;59066;54.782;32.024;2023-10-19T09:00:47;4.92;93.95
43772;HTU21D;59066;54.782;32.024;2023-10-19T09:03:16;5.01;95.65
43772;HTU21D;59066;54.782;32.024;2023-10-19T09:05:45;5.05;95.43
43772;HTU21D;59066;54.782;32.024;2023-10-19T09:08:15;4.95;93.65
43772;HTU21D;59066;54.782;32.024;2023-10-19T09:10:44;4.93;92.34
43772;HTU21D;59066;54.782;32.024;2023-10-19T09:13:16;4.87;91.82
43772;HTU21D;59066;54.782;32.024;2023-10-19T09:15:47;4.92;93.08
43772;HTU21D;59066;54.782;32.024;2023-10-19T09:18:23;5.02;94.40
43772;HTU21D;59066;54.782;32.024;2023-10-19T09:20:52;5.11;95.40
43772;HTU21D;59066;54.782;32.024;2023-10-19T09:23:22;5.24;95.04
43772;HTU21D;59066;54.782;32.024;2023-10-19T09:25:51;5.16;93.04
43772;HTU21D;59066;54.782;32.024;2023-10-19T09:28:22;5.13;94.18
43772;HTU21D;59066;54.782;32.024;2023-10-19T09:30:52;5.08;93.07
43772;HTU21D;59066;54.782;32.024;2023-10-19T09:33:22;5.16;94.23
43772;HTU21D;59066;54.782;32.024;2023-10-19T09:35:51;5.02;93.37
43772;HTU21D;59066;54.782;32.024;2023-10-19T09:38:23;5.03;93.88
43772;HTU21D;59066;54.782;32.024;2023-10-19T09:40:54;4.90;91.78
43772;HTU21D;59066;54.782;32.024;2023-10-19T09:43:37;4.94;93.96
43772;HTU21D;59066;54.782;32.024;2023-10-19T09:46:07;4.98;93.95
43772;HTU21D;59066;54.782;32.024;2023-10-19T09:51:09;4.81;92.47
43772;HTU21D;59066;54.782;32.024;2023-10-19T09:53:42;4.77;93.62
43772;HTU21D;59066;54.782;32.024;2023-10-19T09:56:14;4.75;93.87
43772;HTU21D;59066;54.782;32.024;2023-10-19T09:58:48;4.87;95.18
43772;HTU21D;59066;54.782;32.024;2023-10-19T10:01:17;4.78;93.27
43772;HTU21D;59066;54.782;32.024;2023-10-19T10:03:53;4.96;94.17
43772;HTU21D;59066;54.782;32.024;2023-10-19T10:07:32;5.05;95.57
43772;HTU21D;59066;54.782;32.024;2023-10-19T10:10:08;5.03;94.31
43772;HTU21D;59066;54.782;32.024;2023-10-19T10:12:35;5.09;94.50
43772;HTU21D;59066;54.782;32.024;2023-10-19T10:15:04;5.25;95.17
43772;HTU21D;59066;54.782;32.024;2023-10-19T10:17:37;5.33;93.46
43772;HTU21D;59066;54.782;32.024;2023-10-19T10:22:43;5.32;91.93
43772;HTU21D;59066;54.782;32.024;2023-10-19T10:25:27;5.30;92.27
43772;HTU21D;59066;54.782;32.024;2023-10-19T10:27:56;5.28;91.26
43772;HTU21D;59066;54.782;32.024;2023-10-19T10:30:23;5.35;91.21
43772;HTU21D;59066;54.782;32.024;2023-10-19T10:32:53;5.53;93.56
43772;HTU21D;59066;54.782;32.024;2023-10-19T10:38:10;5.63;88.38
43772;HTU21D;59066;54.782;32.024;2023-10-19T10:40:43;5.60;90.03
43772;HTU21D;59066;54.782;32.024;2023-10-19T10:43:11;5.45;91.24
43772;HTU21D;59066;54.782;32.024;2023-10-19T10:45:39;5.49;93.08
43772;HTU21D;59066;54.782;32.024;2023-10-19T10:48:18;5.38;91.00
43772;HTU21D;59066;54.782;32.024;2023-10-19T10:50:53;5.24;90.25
43772;HTU21D;59066;54.782;32.024;2023-10-19T10:53:23;5.21;92.27
43772;HTU21D;59066;54.782;32.024;2023-10-19T10:55:54;5.12;91.67
43772;HTU21D;59066;54.782;32.024;2023-10-19T10:58:21;5.00;92.67
43772;HTU21D;59066;54.782;32.024;2023-10-19T11:00:50;5.03;93.90
43772;HTU21D;59066;54.782;32.024;2023-10-19T11:03:22;5.27;94.85
43772;HTU21D;59066;54.782;32.024;2023-10-19T11:05:51;5.54;92.94
43772;HTU21D;59066;54.782;32.024;2023-10-19T11:08:24;5.97;93.55
43772;HTU21D;59066;54.782;32.024;2023-10-19T11:10:51;6.01;90.95
43772;HTU21D;59066;54.782;32.024;2023-10-19T11:13:23;5.91;89.73
43772;HTU21D;59066;54.782;32.024;2023-10-19T11:15:56;5.83;90.05
43772;HTU21D;59066;54.782;32.024;2023-10-19T11:21:01;5.54;86.72
43772;HTU21D;59066;54.782;32.024;2023-10-19T11:23:54;5.59;90.04
43772;HTU21D;59066;54.782;32.024;2023-10-19T11:26:23;5.46;87.25
43772;HTU21D;59066;54.782;32.024;2023-10-19T11:29:00;5.64;91.08
43772;HTU21D;59066;54.782;32.024;2023-10-19T11:31:28;5.50;91.98
43772;HTU21D;59066;54.782;32.024;2023-10-19T11:34:06;5.69;92.97
43772;HTU21D;59066;54.782;32.024;2023-10-19T11:36:35;5.85;94.04
43772;HTU21D;59066;54.782;32.024;2023-10-19T11:39:04;6.08;94.35
43772;HTU21D;59066;54.782;32.024;2023-10-19T11:41:31;5.99;92.66
43772;HTU21D;59066;54.782;32.024;2023-10-19T11:44:00;6.11;91.90
43772;HTU21D;59066;54.782;32.024;2023-10-19T11:46:27;6.40;88.55
43772;HTU21D;59066;54.782;32.024;2023-10-19T11:48:56;6.90;90.31
43772;HTU21D;59066;54.782;32.024;2023-10-19T11:51:24;7.04;89.50
43772;HTU21D;59066;54.782;32.024;2023-10-19T11:53:52;6.83;81.75
43772;HTU21D;59066;54.782;32.024;2023-10-19T11:56:19;6.58;86.48
43772;HTU21D;59066;54.782;32.024;2023-10-19T11:58:48;6.37;88.69
43772;HTU21D;59066;54.782;32.024;2023-10-19T12:01:16;6.28;88.88
43772;HTU21D;59066;54.782;32.024;2023-10-19T12:03:47;6.34;89.12
43772;HTU21D;59066;54.782;32.024;2023-10-19T12:06:16;6.55;89.89
43772;HTU21D;59066;54.782;32.024;2023-10-19T12:08:46;6.66;85.93
43772;HTU21D;59066;54.782;32.024;2023-10-19T12:11:14;6.52;85.80
43772;HTU21D;59066;54.782;32.024;2023-10-19T12:13:49;6.23;84.39
43772;HTU21D;59066;54.782;32.024;2023-10-19T12:16:17;6.15;86.67
43772;HTU21D;59066;54.782;32.024;2023-10-19T12:18:45;5.90;85.35
43772;HTU21D;59066;54.782;32.024;2023-10-19T12:21:15;5.70;86.86
43772;HTU21D;59066;54.782;32.024;2023-10-19T12:23:46;5.53;87.81
43772;HTU21D;59066;54.782;32.024;2023-10-19T12:26:23;5.38;87.98
43772;HTU21D;59066;54.782;32.024;2023-10-19T12:28:51;5.24;89.42
43772;HTU21D;59066;54.782;32.024;2023-10-19T12:31:18;5.20;89.44
43772;HTU21D;59066;54.782;32.024;2023-10-19T12:33:46;5.23;89.58
43772;HTU21D;59066;54.782;32.024;2023-10-19T12:36:14;5.28;90.50
43772;HTU21D;59066;54.782;32.024;2023-10-19T12:38:50;5.34;90.24
43772;HTU21D;59066;54.782;32.024;2023-10-19T12:41:19;5.28;90.56
43772;HTU21D;59066;54.782;32.024;2023-10-19T12:43:47;5.39;91.40
43772;HTU21D;59066;54.782;32.024;2023-10-19T12:46:16;5.39;90.93
43772;HTU21D;59066;54.782;32.024;2023-10-19T12:48:44;5.30;90.39
43772;HTU21D;59066;54.782;32.024;2023-10-19T12:51:14;5.20;90.62
43772;HTU21D;59066;54.782;32.024;2023-10-19T12:53:42;5.30;92.34
43772;HTU21D;59066;54.782;32.024;2023-10-19T12:56:10;5.27;92.47
43772;HTU21D;59066;54.782;32.024;2023-10-19T12:58:38;5.28;92.31
43772;HTU21D;59066;54.782;32.024;2023-10-19T13:01:05;5.06;91.79
43772;HTU21D;59066;54.782;32.024;2023-10-19T13:03:33;4.95;92.53
43772;HTU21D;59066;54.782;32.024;2023-10-19T13:06:04;4.90;92.75
43772;HTU21D;59066;54.782;32.024;2023-10-19T13:08:34;4.89;92.14
43772;HTU21D;59066;54.782;32.024;2023-10-19T13:11:02;4.84;92.23
43772;HTU21D;59066;54.782;32.024;2023-10-19T13:13:42;4.97;92.92
43772;HTU21D;59066;54.782;32.024;2023-10-19T13:16:10;5.13;92.67
43772;HTU21D;59066;54.782;32.024;2023-10-19T13:18:38;5.48;92.66
43772;HTU21D;59066;54.782;32.024;2023-10-19T13:21:07;5.83;93.48
43772;HTU21D;59066;54.782;32.024;2023-10-19T13:23:42;5.84;91.69
43772;HTU21D;59066;54.782;32.024;2023-10-19T13:26:11;5.74;92.15
43772;HTU21D;59066;54.782;32.024;2023-10-19T13:28:45;5.65;91.28
43772;HTU21D;59066;54.782;32.024;2023-10-19T13:31:13;5.35;87.87
43772;HTU21D;59066;54.782;32.024;2023-10-19T13:33:45;5.23;89.92
43772;HTU21D;59066;54.782;32.024;2023-10-19T13:36:13;5.11;89.55
43772;HTU21D;59066;54.782;32.024;2023-10-19T13:38:41;4.77;88.85
43772;HTU21D;59066;54.782;32.024;2023-10-19T13:41:09;4.58;91.75
43772;HTU21D;59066;54.782;32.024;2023-10-19T13:43:39;4.59;90.21
43772;HTU21D;59066;54.782;32.024;2023-10-19T13:46:07;4.51;91.87
43772;HTU21D;59066;54.782;32.024;2023-10-19T13:48:35;4.50;92.97
43772;HTU21D;59066;54.782;32.024;2023-10-19T13:51:06;4.51;93.19
43772;HTU21D;59066;54.782;32.024;2023-10-19T13:53:42;4.49;93.01
43772;HTU21D;59066;54.782;32.024;2023-10-19T13:56:13;4.38;92.56
43772;HTU21D;59066;54.782;32.024;2023-10-19T13:58:42;4.32;92.76
43772;HTU21D;59066;54.782;32.024;2023-10-19T14:01:10;4.29;91.92
43772;HTU21D;59066;54.782;32.024;2023-10-19T14:03:40;4.22;92.87
43772;HTU21D;59066;54.782;32.024;2023-10-19T14:06:14;4.24;92.42
43772;HTU21D;59066;54.782;32.024;2023-10-19T14:08:46;4.20;91.26
43772;HTU21D;59066;54.782;32.024;2023-10-19T14:11:15;4.22;92.37
43772;HTU21D;59066;54.782;32.024;2023-10-19T14:13:42;4.22;93.04
43772;HTU21D;59066;54.782;32.024;2023-10-19T14:16:10;4.24;93.49
43772;HTU21D;59066;54.782;32.024;2023-10-19T14:18:38;4.30;94.08
43772;HTU21D;59066;54.782;32.024;2023-10-19T14:21:17;4.41;94.24
43772;HTU21D;59066;54.782;32.024;2023-10-19T14:23:45;4.34;94.14
43772;HTU21D;59066;54.782;32.024;2023-10-19T14:26:13;4.33;93.95
43772;HTU21D;59066;54.782;32.024;2023-10-19T14:28:41;4.29;92.75
43772;HTU21D;59066;54.782;32.024;2023-10-19T14:31:09;4.21;91.65
43772;HTU21D;59066;54.782;32.024;2023-10-19T14:33:38;4.17;91.93
43772;HTU21D;59066;54.782;32.024;2023-10-19T14:36:06;4.17;92.79
43772;HTU21D;59066;54.782;32.024;2023-10-19T14:38:34;4.12;93.62
43772;HTU21D;59066;54.782;32.024;2023-10-19T14:41:03;4.15;94.25
43772;HTU21D;59066;54.782;32.024;2023-10-19T14:43:32;4.14;94.52
43772;HTU21D;59066;54.782;32.024;2023-10-19T14:46:00;4.13;93.96
43772;HTU21D;59066;54.782;32.024;2023-10-19T14:48:28;4.13;93.26
43772;HTU21D;59066;54.782;32.024;2023-10-19T14:50:56;4.07;92.15
43772;HTU21D;59066;54.782;32.024;2023-10-19T14:53:24;3.97;91.75
43772;HTU21D;59066;54.782;32.024;2023-10-19T14:55:54;3.93;92.28
43772;HTU21D;59066;54.782;32.024;2023-10-19T14:58:21;3.95;92.14
43772;HTU21D;59066;54.782;32.024;2023-10-19T15:00:49;3.86;90.70
43772;HTU21D;59066;54.782;32.024;2023-10-19T15:03:22;3.88;91.39
43772;HTU21D;59066;54.782;32.024;2023-10-19T15:05:51;3.94;92.47
43772;HTU21D;59066;54.782;32.024;2023-10-19T15:08:20;3.93;92.20
43772;HTU21D;59066;54.782;32.024;2023-10-19T15:10:51;3.95;93.00
43772;HTU21D;59066;54.782;32.024;2023-10-19T15:13:21;4.02;93.59
43772;HTU21D;59066;54.782;32.024;2023-10-19T15:15:49;3.99;92.92
43772;HTU21D;59066;54.782;32.024;2023-10-19T15:18:18;3.98;92.95
43772;HTU21D;59066;54.782;32.024;2023-10-19T15:20:45;3.99;93.43
43772;HTU21D;59066;54.782;32.024;2023-10-19T15:23:13;3.99;93.39
43772;HTU21D;59066;54.782;32.024;2023-10-19T15:25:42;3.97;93.27
43772;HTU21D;59066;54.782;32.024;2023-10-19T15:28:09;3.94;93.82
43772;HTU21D;59066;54.782;32.024;2023-10-19T15:30:38;4.02;94.49
43772;HTU21D;59066;54.782;32.024;2023-10-19T15:33:07;3.98;94.09
43772;HTU21D;59066;54.782;32.024;2023-10-19T15:35:34;4.01;94.68
43772;HTU21D;59066;54.782;32.024;2023-10-19T15:38:04;4.01;94.21
43772;HTU21D;59066;54.782;32.024;2023-10-19T15:40:32;3.99;93.82